Time;durP1;ratioP1;P1;durP2;ratioP2;P2;SDS_P1;SDS_P2;PMS_P1;PMS_P2;Temp;Humidity;BMP_temperature;BMP_pressure;BME280_temperature;BME280_humidity;BME280_pressure;Samples;Min_cycle;Max_cycle;Signal;HPM_P1;HPM_P2
2023/01/26 00:06:55;;;;;;;32.70;19.90;;;;;;;-0.67;100.00;100259.31;449550;1251;142855;-59
2023/01/26 00:17:01;;;;;;;33.10;20.80;;;;;;;-0.64;100.00;100252.24;450233;1251;143324;-59
2023/01/26 00:27:06;;;;;;;33.10;19.60;;;;;;;-0.68;100.00;100242.64;447885;1251;143676;-59
2023/01/26 00:37:12;;;;;;;31.70;17.70;;;;;;;-0.74;100.00;100237.00;449491;1251;143982;-60
2023/01/26 00:47:18;;;;;;;26.20;16.60;;;;;;;-0.79;100.00;100238.95;447071;1251;144335;-58
2023/01/26 00:57:24;;;;;;;21.80;13.80;;;;;;;-0.87;100.00;100233.14;433519;1252;144106;-60
2023/01/26 01:07:30;;;;;;;21.50;14.70;;;;;;;-0.92;100.00;100239.20;443198;1251;142494;-60
2023/01/26 01:17:36;;;;;;;21.60;13.80;;;;;;;-0.92;100.00;100238.16;439590;1251;142553;-59
2023/01/26 01:27:42;;;;;;;28.90;17.20;;;;;;;-0.94;100.00;100226.66;434548;1252;143440;-59
2023/01/26 01:37:48;;;;;;;25.80;17.30;;;;;;;-0.94;100.00;100215.30;433402;1255;147786;-60
2023/01/26 01:47:56;;;;;;;27.00;17.10;;;;;;;-0.95;100.00;100197.95;434079;1251;143775;-59
2023/01/26 01:58:05;;;;;;;22.80;14.40;;;;;;;-0.99;100.00;100187.84;434804;1251;143478;-59
2023/01/26 02:08:13;;;;;;;21.50;14.20;;;;;;;-1.03;100.00;100182.37;438832;1252;143828;-60
2023/01/26 02:18:19;;;;;;;25.70;17.10;;;;;;;-1.08;100.00;100175.71;439044;1250;142336;-59
2023/01/26 02:28:27;;;;;;;29.00;16.90;;;;;;;-1.10;100.00;100151.48;439161;1253;208619;-60
2023/01/26 02:38:39;;;;;;;30.60;18.10;;;;;;;-1.10;100.00;100144.44;433521;1255;143072;-59
2023/01/26 02:59:09;;;;;;;48.00;24.70;;;;;;;-1.10;100.00;100122.27;434733;1255;196238;-61
2023/01/26 03:09:15;;;;;;;47.00;23.70;;;;;;;-1.12;100.00;100106.14;434026;1251;142534;-60
2023/01/26 03:29:45;;;;;;;49.00;26.20;;;;;;;-1.08;100.00;100084.80;443356;1251;184825;-59
2023/01/26 04:00:41;;;;;;;54.00;27.70;;;;;;;-1.05;100.00;100054.54;437920;1251;142750;-62
2023/01/26 04:10:46;;;;;;;64.00;30.40;;;;;;;-1.07;100.00;100037.37;434601;1252;147369;-59
2023/01/26 04:31:16;;;;;;;54.40;29.40;;;;;;;-1.09;100.00;100038.58;434500;1251;144263;-59
2023/01/26 04:41:22;;;;;;;57.20;32.30;;;;;;;-1.08;100.00;100044.77;439403;1252;142977;-59
2023/01/26 04:51:28;;;;;;;58.10;31.50;;;;;;;-1.07;100.00;100031.69;436591;1251;143272;-59
2023/01/26 05:01:34;;;;;;;57.10;30.60;;;;;;;-1.07;100.00;100025.00;440290;1251;146524;-59
2023/01/26 05:11:40;;;;;;;48.60;28.40;;;;;;;-1.10;100.00;100021.92;435167;1250;142292;-59
2023/01/26 05:21:46;;;;;;;55.10;31.60;;;;;;;-1.09;100.00;100022.44;435797;1250;144492;-59
2023/01/26 05:31:52;;;;;;;49.20;27.30;;;;;;;-1.09;100.00;100020.71;435233;1251;141679;-59
2023/01/26 05:41:58;;;;;;;43.70;26.10;;;;;;;-1.10;100.00;100019.52;434970;1252;143598;-61
2023/01/26 05:52:07;;;;;;;43.20;24.00;;;;;;;-1.13;100.00;100019.02;434626;1250;142768;-59
2023/01/26 06:02:14;;;;;;;48.50;28.40;;;;;;;-1.14;100.00;100021.46;438960;1251;146395;-60
2023/01/26 06:12:21;;;;;;;42.30;22.80;;;;;;;-1.16;100.00;100013.73;445797;1252;142833;-59
2023/01/26 06:22:27;;;;;;;30.70;21.30;;;;;;;-1.14;100.00;100001.85;446631;1252;197656;-60
2023/01/26 06:32:33;;;;;;;35.10;21.80;;;;;;;-1.11;100.00;99999.44;441429;1255;143760;-61
2023/01/26 06:42:39;;;;;;;32.50;20.70;;;;;;;-1.06;100.00;99998.01;449433;1251;143906;-60
2023/01/26 06:52:50;;;;;;;33.10;21.00;;;;;;;-0.97;100.00;100003.42;450227;1251;142985;-60
2023/01/26 07:02:56;;;;;;;28.70;19.60;;;;;;;-0.90;100.00;100000.77;450329;1251;143123;-60
2023/01/26 07:13:03;;;;;;;29.50;19.30;;;;;;;-0.85;100.00;100000.38;449565;1251;143928;-60
2023/01/26 07:23:09;;;;;;;36.20;23.40;;;;;;;-0.74;100.00;100000.95;450417;1252;143722;-60
2023/01/26 07:33:15;;;;;;;30.10;19.40;;;;;;;-0.63;100.00;99999.96;450435;1252;143149;-60
2023/01/26 07:43:21;;;;;;;29.10;19.00;;;;;;;-0.52;100.00;99994.33;449619;1251;144408;-60
2023/01/26 07:53:28;;;;;;;27.40;19.00;;;;;;;-0.36;100.00;99988.64;450349;1252;143378;-61
2023/01/26 08:03:32;;;;;;;;;;;;;;;-0.13;100.00;99978.20;449564;1251;143968;-60
2023/01/26 08:13:38;;;;;;;20.30;14.50;;;;;;;0.13;99.54;99965.42;450687;1251;128575;-59
2023/01/26 08:23:47;;;;;;;20.70;15.30;;;;;;;0.04;98.73;99972.61;450411;1252;142466;-60
2023/01/26 08:33:55;;;;;;;18.90;13.40;;;;;;;0.07;98.35;99981.17;449430;1252;143201;-60
2023/01/26 08:44:01;;;;;;;19.60;14.30;;;;;;;0.02;97.89;99991.05;450291;1252;142281;-59
2023/01/26 08:54:08;;;;;;;20.80;14.40;;;;;;;0.05;97.69;100001.18;450351;1252;142830;-60
2023/01/26 09:04:14;;;;;;;19.10;14.90;;;;;;;0.12;97.50;100010.20;449595;1252;143228;-61
2023/01/26 09:14:20;;;;;;;26.20;16.80;;;;;;;0.27;97.35;100007.05;450347;1251;142040;-60
2023/01/26 09:24:26;;;;;;;23.30;17.20;;;;;;;0.19;97.00;100012.35;449645;1251;143075;-59
2023/01/26 09:34:32;;;;;;;25.20;16.10;;;;;;;0.23;96.87;100008.66;450361;1252;142698;-60
2023/01/26 09:44:45;;;;;;;24.40;15.90;;;;;;;0.21;96.59;100001.98;450391;1252;145072;-59
2023/01/26 09:54:54;;;;;;;24.90;17.00;;;;;;;0.19;96.35;99984.27;449686;1251;145965;-60
2023/01/26 10:05:04;;;;;;;22.60;15.30;;;;;;;0.18;96.08;99979.98;450411;1252;142547;-60
2023/01/26 10:15:25;;;;;;;22.70;17.30;;;;;;;0.18;95.84;99962.07;450413;1251;141914;-61
2023/01/26 10:25:36;;;;;;;22.80;14.20;;;;;;;0.11;95.38;99956.84;444204;1255;142595;-60
2023/01/26 10:35:42;;;;;;;22.60;15.00;;;;;;;0.04;94.99;99943.86;439771;1255;142989;-59
2023/01/26 10:45:49;;;;;;;23.20;16.70;;;;;;;0.16;94.91;99934.91;449712;1251;142681;-60
2023/01/26 10:56:04;;;;;;;20.10;14.10;;;;;;;0.38;94.61;99928.70;450433;1252;143178;-60
2023/01/26 11:06:15;;;;;;;15.80;12.90;;;;;;;0.45;93.59;99910.66;450473;1251;142885;-60
2023/01/26 11:16:24;;;;;;;19.30;12.40;;;;;;;0.57;93.19;99895.13;449560;1252;142859;-60
2023/01/26 11:26:57;;;;;;;15.40;11.90;;;;;;;0.59;92.65;99886.13;446201;1253;143000;-59
2023/01/26 11:37:50;;;;;;;19.80;14.90;;;;;;;0.60;92.17;99873.36;433244;1255;143560;-59
2023/01/26 11:48:12;;;;;;;19.20;13.00;;;;;;;0.66;92.32;99870.85;437724;1255;142779;-59
2023/01/26 11:58:32;;;;;;;24.00;14.60;;;;;;;0.61;91.84;99866.80;449684;1251;143914;-61
2023/01/26 12:08:42;;;;;;;23.50;14.60;;;;;;;0.52;91.48;99851.12;446847;1252;142913;-60
2023/01/26 12:18:57;;;;;;;18.90;13.10;;;;;;;0.42;90.93;99847.69;449655;1252;162573;-60
2023/01/26 12:29:21;;;;;;;24.70;15.10;;;;;;;0.25;90.53;99845.05;441663;1252;142838;-59
2023/01/26 12:39:34;;;;;;;18.70;14.40;;;;;;;0.09;90.75;99841.17;449499;1251;141914;-60
2023/01/26 12:49:49;;;;;;;22.90;15.80;;;;;;;-0.01;90.52;99842.22;445083;1255;142919;-60
2023/01/26 13:00:08;;;;;;;23.80;16.30;;;;;;;-0.19;90.46;99841.30;450195;1252;142349;-65
2023/01/26 13:10:30;;;;;;;21.70;14.60;;;;;;;-0.26;90.48;99828.48;444733;1252;143422;-60
2023/01/26 13:20:55;;;;;;;18.20;13.70;;;;;;;-0.15;90.51;99819.90;450187;1251;142516;-61
2023/01/26 13:31:09;;;;;;;18.90;12.90;;;;;;;-0.18;89.91;99822.85;449437;1255;142644;-61
2023/01/26 13:41:21;;;;;;;21.60;15.00;;;;;;;-0.25;89.75;99822.81;450298;1251;142951;-60
2023/01/26 13:51:29;;;;;;;19.30;13.60;;;;;;;-0.29;89.79;99823.38;449512;1251;142119;-64
2023/01/26 14:01:41;;;;;;;19.80;13.90;;;;;;;-0.37;89.62;99832.63;450283;1251;143377;-59
2023/01/26 14:11:55;;;;;;;20.60;13.70;;;;;;;-0.47;89.32;99825.04;450207;1251;141767;-60
2023/01/26 14:22:04;;;;;;;18.80;12.60;;;;;;;-0.64;88.99;99811.35;449486;1251;142371;-62
2023/01/26 14:32:16;;;;;;;23.60;15.10;;;;;;;-0.75;88.95;99804.10;449527;1251;142261;-64
2023/01/26 14:42:23;;;;;;;21.00;16.00;;;;;;;-0.85;88.89;99804.75;449789;1251;142826;-60
2023/01/26 14:52:33;;;;;;;22.90;17.00;;;;;;;-0.93;88.99;99800.91;450099;1251;141882;-60
2023/01/26 15:02:46;;;;;;;23.80;16.10;;;;;;;-1.03;89.03;99791.59;450007;1251;141990;-60
2023/01/26 15:13:00;;;;;;;22.10;16.10;;;;;;;-1.11;88.82;99790.15;449399;1251;143425;-60
2023/01/26 15:23:24;;;;;;;24.00;16.60;;;;;;;-1.21;89.16;99779.96;449979;1251;142824;-60
2023/01/26 15:33:44;;;;;;;25.60;16.50;;;;;;;-1.27;89.31;99784.17;440600;1251;180938;-59
2023/01/26 15:43:50;;;;;;;25.00;17.60;;;;;;;-1.33;89.40;99797.64;450133;1251;142783;-60
2023/01/26 15:53:56;;;;;;;23.70;16.10;;;;;;;-1.41;89.51;99799.77;450019;1251;141987;-59
2023/01/26 16:04:02;;;;;;;26.40;18.50;;;;;;;-1.42;89.95;99814.39;449278;1250;142094;-59
2023/01/26 16:14:09;;;;;;;32.80;22.30;;;;;;;-1.39;89.74;99814.52;450052;1251;143380;-60
2023/01/26 16:24:15;;;;;;;29.30;20.60;;;;;;;-1.42;89.93;99808.73;450083;1251;143192;-61
2023/01/26 16:34:20;;;;;;;31.40;19.10;;;;;;;-1.42;89.93;99814.21;449301;1251;143061;-59
2023/01/26 16:44:26;;;;;;;31.60;19.70;;;;;;;-1.43;89.86;99812.00;450048;1251;143742;-60
2023/01/26 16:54:32;;;;;;;31.50;22.40;;;;;;;-1.45;89.99;99816.66;449291;1251;144083;-60
2023/01/26 17:04:38;;;;;;;33.70;20.40;;;;;;;-1.43;90.16;99827.27;450139;1251;143970;-60
2023/01/26 17:14:44;;;;;;;27.90;19.80;;;;;;;-1.39;90.08;99832.05;450056;1251;143022;-60
2023/01/26 17:24:50;;;;;;;24.60;17.70;;;;;;;-1.38;90.15;99829.45;449449;1251;143320;-59
2023/01/26 17:34:56;;;;;;;24.30;16.30;;;;;;;-1.43;89.83;99817.84;450227;1251;144308;-58
2023/01/26 17:45:02;;;;;;;27.00;19.40;;;;;;;-1.47;89.68;99803.28;450230;1251;142237;-58
2023/01/26 17:55:09;;;;;;;29.60;21.30;;;;;;;-1.53;89.81;99798.89;445311;1251;142349;-59
2023/01/26 18:05:15;;;;;;;30.70;19.40;;;;;;;-1.58;89.56;99801.67;450233;1251;142772;-59
2023/01/26 18:15:21;;;;;;;34.30;21.30;;;;;;;-1.59;89.76;99808.73;450254;1251;143817;-60
2023/01/26 18:25:28;;;;;;;37.60;23.50;;;;;;;-1.58;89.86;99810.95;449863;1251;143300;-59
2023/01/26 18:35:34;;;;;;;34.40;22.10;;;;;;;-1.53;89.90;99810.39;450244;1251;143124;-60
2023/01/26 18:45:43;;;;;;;32.00;20.70;;;;;;;-1.45;89.92;99816.83;449516;1251;143059;-59
2023/01/26 18:55:50;;;;;;;36.60;24.60;;;;;;;-1.42;89.67;99826.41;450111;1252;143049;-59
2023/01/26 19:05:55;;;;;;;34.90;22.60;;;;;;;-1.41;89.68;99828.46;450282;1251;143831;-59
2023/01/26 19:16:01;;;;;;;37.00;23.40;;;;;;;-1.37;89.79;99829.45;449519;1251;142832;-59
2023/01/26 19:26:12;;;;;;;37.20;25.00;;;;;;;-1.33;89.57;99829.92;450156;1251;143752;-60
2023/01/26 19:36:19;;;;;;;39.70;25.50;;;;;;;-1.28;89.63;99830.20;445949;1252;141776;-59
2023/01/26 19:46:25;;;;;;;46.30;28.80;;;;;;;-1.28;89.66;99822.65;449465;1251;199181;-60
2023/01/26 19:56:34;;;;;;;37.40;23.90;;;;;;;-1.26;89.73;99816.45;450067;1251;143043;-59
2023/01/26 20:06:40;;;;;;;44.30;25.30;;;;;;;-1.28;89.74;99807.34;448579;1251;142602;-60
2023/01/26 20:16:46;;;;;;;37.40;25.10;;;;;;;-1.25;89.63;99803.55;450081;1251;143342;-59
2023/01/26 20:26:53;;;;;;;39.20;24.40;;;;;;;-1.27;89.31;99799.79;450152;1251;144023;-61
2023/01/26 20:36:59;;;;;;;44.80;26.00;;;;;;;-1.30;88.96;99795.53;436339;1251;143295;-60
2023/01/26 20:47:06;;;;;;;50.50;29.00;;;;;;;-1.30;88.83;99799.30;450222;1251;142733;-62
2023/01/26 20:57:10;;;;;;;;;;;;;;;-1.30;88.64;99796.57;450037;1251;142840;-60
2023/01/26 21:07:16;;;;;;;42.50;28.60;;;;;;;-1.31;88.51;99794.17;446171;1251;130815;-60
2023/01/26 21:17:23;;;;;;;47.90;30.30;;;;;;;-1.30;88.52;99792.60;449664;1250;142818;-60
2023/01/26 21:27:29;;;;;;;49.00;29.30;;;;;;;-1.29;88.58;99790.54;449363;1252;143038;-59
2023/01/26 21:37:35;;;;;;;43.40;28.00;;;;;;;-1.28;88.29;99789.48;450144;1251;141979;-60
2023/01/26 21:47:41;;;;;;;45.30;28.20;;;;;;;-1.25;88.08;99787.90;437541;1252;141346;-60
2023/01/26 22:08:10;;;;;;;32.10;22.50;;;;;;;-1.28;87.34;99790.19;435715;1251;144248;-61
2023/01/26 22:18:16;;;;;;;39.10;23.50;;;;;;;-1.33;87.05;99788.86;443475;1250;144482;-59
2023/01/26 22:28:22;;;;;;;38.30;24.50;;;;;;;-1.35;87.35;99787.00;449655;1251;144598;-59
2023/01/26 22:38:28;;;;;;;30.60;18.50;;;;;;;-1.33;86.95;99786.11;450337;1251;141842;-59
2023/01/26 22:48:34;;;;;;;33.10;21.20;;;;;;;-1.31;86.98;99779.91;449545;1252;143107;-60
2023/01/26 22:58:40;;;;;;;32.20;19.80;;;;;;;-1.27;87.05;99783.64;450247;1251;144006;-60
2023/01/26 23:09:03;;;;;;;30.90;21.00;;;;;;;-1.23;87.12;99776.39;449411;1251;142864;-60
2023/01/26 23:19:10;;;;;;;35.20;23.80;;;;;;;-1.22;86.67;99773.62;449494;1251;143081;-59
2023/01/26 23:29:15;;;;;;;37.40;23.60;;;;;;;-1.22;87.28;99766.91;450393;1252;143485;-60
2023/01/26 23:39:21;;;;;;;39.50;25.80;;;;;;;-1.22;87.46;99767.42;450435;1252;142234;-59
2023/01/26 23:49:27;;;;;;;35.40;21.60;;;;;;;-1.20;87.35;99764.15;450032;1251;210475;-61
2023/01/26 23:59:33;;;;;;;37.80;25.90;;;;;;;-1.19;87.12;99755.20;450299;1251;143803;-60
